sensor_id;sensor_type;location;lat;lon;timestamp;temperature;humidity
71514;DHT22;59335;46.652;21.272;2022-08-19T00:02:25;30.37;41.84
71514;DHT22;59335;46.652;21.272;2022-08-19T00:05:28;30.35;41.89
71514;DHT22;59335;46.652;21.272;2022-08-19T00:08:31;30.34;41.88
71514;DHT22;59335;46.652;21.272;2022-08-19T00:11:35;30.35;41.89
71514;DHT22;59335;46.652;21.272;2022-08-19T00:14:38;30.34;42.04
71514;DHT22;59335;46.652;21.272;2022-08-19T00:17:43;30.35;41.96
71514;DHT22;59335;46.652;21.272;2022-08-19T00:20:46;30.34;41.99
71514;DHT22;59335;46.652;21.272;2022-08-19T00:23:48;30.34;42.04
71514;DHT22;59335;46.652;21.272;2022-08-19T00:26:52;30.31;41.99
71514;DHT22;59335;46.652;21.272;2022-08-19T00:29:54;30.34;41.99
71514;DHT22;59335;46.652;21.272;2022-08-19T00:32:57;30.34;42.02
71514;DHT22;59335;46.652;21.272;2022-08-19T00:36:01;30.34;42.06
71514;DHT22;59335;46.652;21.272;2022-08-19T00:39:04;30.35;42.10
71514;DHT22;59335;46.652;21.272;2022-08-19T00:42:07;30.34;42.11
71514;DHT22;59335;46.652;21.272;2022-08-19T00:45:17;30.31;42.09
71514;DHT22;59335;46.652;21.272;2022-08-19T00:48:20;30.31;42.16
71514;DHT22;59335;46.652;21.272;2022-08-19T00:51:26;30.32;42.11
71514;DHT22;59335;46.652;21.272;2022-08-19T00:54:30;30.32;42.13
71514;DHT22;59335;46.652;21.272;2022-08-19T00:57:38;30.32;42.12
71514;DHT22;59335;46.652;21.272;2022-08-19T01:00:42;30.34;42.12
71514;DHT22;59335;46.652;21.272;2022-08-19T01:03:44;30.32;42.13
71514;DHT22;59335;46.652;21.272;2022-08-19T01:07:02;30.32;42.12
71514;DHT22;59335;46.652;21.272;2022-08-19T01:10:10;30.32;42.19
71514;DHT22;59335;46.652;21.272;2022-08-19T01:13:19;30.31;42.14
71514;DHT22;59335;46.652;21.272;2022-08-19T01:16:25;30.31;42.19
71514;DHT22;59335;46.652;21.272;2022-08-19T01:19:32;30.29;42.12
71514;DHT22;59335;46.652;21.272;2022-08-19T01:22:55;30.28;42.12
71514;DHT22;59335;46.652;21.272;2022-08-19T01:25:58;30.31;42.13
71514;DHT22;59335;46.652;21.272;2022-08-19T01:29:01;30.31;42.18
71514;DHT22;59335;46.652;21.272;2022-08-19T01:32:08;30.31;42.16
71514;DHT22;59335;46.652;21.272;2022-08-19T01:35:35;30.31;42.20
71514;DHT22;59335;46.652;21.272;2022-08-19T01:38:40;30.28;42.20
71514;DHT22;59335;46.652;21.272;2022-08-19T01:41:46;30.28;42.22
71514;DHT22;59335;46.652;21.272;2022-08-19T01:44:49;30.29;42.23
71514;DHT22;59335;46.652;21.272;2022-08-19T01:47:52;30.31;42.22
71514;DHT22;59335;46.652;21.272;2022-08-19T01:51:04;30.28;42.24
71514;DHT22;59335;46.652;21.272;2022-08-19T01:54:08;30.29;42.22
71514;DHT22;59335;46.652;21.272;2022-08-19T01:57:12;30.28;42.17
71514;DHT22;59335;46.652;21.272;2022-08-19T02:00:20;30.28;42.22
71514;DHT22;59335;46.652;21.272;2022-08-19T02:03:24;30.27;42.22
71514;DHT22;59335;46.652;21.272;2022-08-19T02:06:27;30.29;42.20
71514;DHT22;59335;46.652;21.272;2022-08-19T02:09:32;30.29;42.20
71514;DHT22;59335;46.652;21.272;2022-08-19T02:12:34;30.27;42.22
71514;DHT22;59335;46.652;21.272;2022-08-19T02:15:38;30.27;42.22
71514;DHT22;59335;46.652;21.272;2022-08-19T02:18:41;30.28;42.20
71514;DHT22;59335;46.652;21.272;2022-08-19T02:21:45;30.23;42.27
71514;DHT22;59335;46.652;21.272;2022-08-19T02:24:48;30.25;42.30
71514;DHT22;59335;46.652;21.272;2022-08-19T02:27:51;30.25;42.27
71514;DHT22;59335;46.652;21.272;2022-08-19T02:30:56;30.25;42.24
71514;DHT22;59335;46.652;21.272;2022-08-19T02:33:59;30.23;42.28
71514;DHT22;59335;46.652;21.272;2022-08-19T02:37:02;30.25;42.27
71514;DHT22;59335;46.652;21.272;2022-08-19T02:40:05;30.27;42.27
71514;DHT22;59335;46.652;21.272;2022-08-19T02:43:13;30.27;42.27
71514;DHT22;59335;46.652;21.272;2022-08-19T02:46:25;30.25;42.25
71514;DHT22;59335;46.652;21.272;2022-08-19T02:49:31;30.25;42.24
71514;DHT22;59335;46.652;21.272;2022-08-19T02:52:36;30.25;42.27
71514;DHT22;59335;46.652;21.272;2022-08-19T02:55:45;30.27;42.21
71514;DHT22;59335;46.652;21.272;2022-08-19T02:58:48;30.24;42.27
71514;DHT22;59335;46.652;21.272;2022-08-19T03:01:52;30.24;42.25
71514;DHT22;59335;46.652;21.272;2022-08-19T03:04:55;30.24;42.28
71514;DHT22;59335;46.652;21.272;2022-08-19T03:07:58;30.24;42.27
71514;DHT22;59335;46.652;21.272;2022-08-19T03:11:01;30.24;42.27
71514;DHT22;59335;46.652;21.272;2022-08-19T03:14:05;30.21;42.37
71514;DHT22;59335;46.652;21.272;2022-08-19T03:17:08;30.21;42.31
71514;DHT22;59335;46.652;21.272;2022-08-19T03:20:12;30.24;42.31
71514;DHT22;59335;46.652;21.272;2022-08-19T03:23:16;30.23;42.27
71514;DHT22;59335;46.652;21.272;2022-08-19T03:26:18;30.24;42.27
71514;DHT22;59335;46.652;21.272;2022-08-19T03:29:21;30.23;42.28
71514;DHT22;59335;46.652;21.272;2022-08-19T03:32:32;30.21;42.37
71514;DHT22;59335;46.652;21.272;2022-08-19T03:35:36;30.23;42.30
71514;DHT22;59335;46.652;21.272;2022-08-19T03:38:42;30.23;42.31
71514;DHT22;59335;46.652;21.272;2022-08-19T03:41:47;30.21;42.32
71514;DHT22;59335;46.652;21.272;2022-08-19T03:45:11;30.21;42.34
71514;DHT22;59335;46.652;21.272;2022-08-19T03:48:14;30.20;42.36
71514;DHT22;59335;46.652;21.272;2022-08-19T03:51:27;30.24;42.31
71514;DHT22;59335;46.652;21.272;2022-08-19T03:54:32;30.21;42.35
71514;DHT22;59335;46.652;21.272;2022-08-19T03:57:35;30.23;42.35
71514;DHT22;59335;46.652;21.272;2022-08-19T04:00:42;30.21;42.33
71514;DHT22;59335;46.652;21.272;2022-08-19T04:03:45;30.20;42.34
71514;DHT22;59335;46.652;21.272;2022-08-19T04:06:48;30.21;42.34
71514;DHT22;59335;46.652;21.272;2022-08-19T04:09:51;30.20;42.32
71514;DHT22;59335;46.652;21.272;2022-08-19T04:12:55;30.24;42.31
71514;DHT22;59335;46.652;21.272;2022-08-19T04:15:57;30.21;42.32
71514;DHT22;59335;46.652;21.272;2022-08-19T04:19:03;30.20;42.27
71514;DHT22;59335;46.652;21.272;2022-08-19T04:22:09;30.23;42.31
71514;DHT22;59335;46.652;21.272;2022-08-19T04:25:13;30.21;42.31
71514;DHT22;59335;46.652;21.272;2022-08-19T04:28:16;30.23;42.32
71514;DHT22;59335;46.652;21.272;2022-08-19T04:31:22;30.23;42.25
71514;DHT22;59335;46.652;21.272;2022-08-19T04:34:28;30.24;42.29
71514;DHT22;59335;46.652;21.272;2022-08-19T04:37:32;30.23;42.30
71514;DHT22;59335;46.652;21.272;2022-08-19T04:40:42;30.23;42.24
71514;DHT22;59335;46.652;21.272;2022-08-19T04:44:03;30.21;42.27
71514;DHT22;59335;46.652;21.272;2022-08-19T04:47:06;30.21;42.34
71514;DHT22;59335;46.652;21.272;2022-08-19T04:50:12;30.24;42.39
71514;DHT22;59335;46.652;21.272;2022-08-19T04:53:15;30.10;43.79
71514;DHT22;59335;46.652;21.272;2022-08-19T04:56:19;30.10;44.01
71514;DHT22;59335;46.652;21.272;2022-08-19T04:59:23;30.06;44.30
71514;DHT22;59335;46.652;21.272;2022-08-19T05:02:25;30.07;44.39
71514;DHT22;59335;46.652;21.272;2022-08-19T05:05:28;30.06;44.44
71514;DHT22;59335;46.652;21.272;2022-08-19T05:08:46;30.04;44.48
71514;DHT22;59335;46.652;21.272;2022-08-19T05:11:51;30.01;44.61
71514;DHT22;59335;46.652;21.272;2022-08-19T05:14:56;29.96;44.75
71514;DHT22;59335;46.652;21.272;2022-08-19T05:17:59;29.99;44.76
71514;DHT22;59335;46.652;21.272;2022-08-19T05:21:23;29.94;44.79
71514;DHT22;59335;46.652;21.272;2022-08-19T05:24:44;29.90;44.86
71514;DHT22;59335;46.652;21.272;2022-08-19T05:28:06;29.93;44.79
71514;DHT22;59335;46.652;21.272;2022-08-19T05:31:09;30.00;44.61
71514;DHT22;59335;46.652;21.272;2022-08-19T05:34:12;30.03;44.59
71514;DHT22;59335;46.652;21.272;2022-08-19T05:37:21;30.06;44.55
71514;DHT22;59335;46.652;21.272;2022-08-19T05:40:24;30.08;44.50
71514;DHT22;59335;46.652;21.272;2022-08-19T05:43:27;30.11;44.42
71514;DHT22;59335;46.652;21.272;2022-08-19T05:46:30;30.11;44.38
71514;DHT22;59335;46.652;21.272;2022-08-19T05:49:33;30.16;44.40
71514;DHT22;59335;46.652;21.272;2022-08-19T05:52:37;30.18;44.34
71514;DHT22;59335;46.652;21.272;2022-08-19T05:55:51;30.20;44.29
71514;DHT22;59335;46.652;21.272;2022-08-19T05:58:54;30.20;44.22
71514;DHT22;59335;46.652;21.272;2022-08-19T06:02:02;30.23;44.19
71514;DHT22;59335;46.652;21.272;2022-08-19T06:05:06;30.25;44.11
71514;DHT22;59335;46.652;21.272;2022-08-19T06:08:11;30.28;44.06
71514;DHT22;59335;46.652;21.272;2022-08-19T06:14:21;30.31;43.81
71514;DHT22;59335;46.652;21.272;2022-08-19T06:17:29;30.34;43.70
71514;DHT22;59335;46.652;21.272;2022-08-19T06:20:33;30.39;43.53
71514;DHT22;59335;46.652;21.272;2022-08-19T06:23:56;30.41;43.47
71514;DHT22;59335;46.652;21.272;2022-08-19T06:27:01;30.41;43.43
71514;DHT22;59335;46.652;21.272;2022-08-19T06:30:04;30.42;43.39
71514;DHT22;59335;46.652;21.272;2022-08-19T06:33:07;30.45;43.37
71514;DHT22;59335;46.652;21.272;2022-08-19T06:36:36;30.47;43.44
71514;DHT22;59335;46.652;21.272;2022-08-19T06:39:41;30.49;43.42
71514;DHT22;59335;46.652;21.272;2022-08-19T06:42:45;30.52;43.44
71514;DHT22;59335;46.652;21.272;2022-08-19T06:45:56;30.54;43.38
71514;DHT22;59335;46.652;21.272;2022-08-19T06:49:00;30.56;43.37
71514;DHT22;59335;46.652;21.272;2022-08-19T06:52:04;30.56;43.42
71514;DHT22;59335;46.652;21.272;2022-08-19T06:55:07;30.59;43.42
71514;DHT22;59335;46.652;21.272;2022-08-19T06:58:10;30.59;43.37
71514;DHT22;59335;46.652;21.272;2022-08-19T07:01:13;30.65;43.36
71514;DHT22;59335;46.652;21.272;2022-08-19T07:04:18;30.65;43.39
71514;DHT22;59335;46.652;21.272;2022-08-19T07:07:21;30.65;43.33
71514;DHT22;59335;46.652;21.272;2022-08-19T07:10:24;30.68;43.37
71514;DHT22;59335;46.652;21.272;2022-08-19T07:13:27;30.71;43.37
71514;DHT22;59335;46.652;21.272;2022-08-19T07:16:30;30.71;43.35
71514;DHT22;59335;46.652;21.272;2022-08-19T07:19:33;30.75;43.40
71514;DHT22;59335;46.652;21.272;2022-08-19T07:22:37;30.75;43.41
71514;DHT22;59335;46.652;21.272;2022-08-19T07:25:40;30.78;43.40
71514;DHT22;59335;46.652;21.272;2022-08-19T07:28:43;30.76;43.42
71514;DHT22;59335;46.652;21.272;2022-08-19T07:31:54;30.80;43.43
71514;DHT22;59335;46.652;21.272;2022-08-19T07:35:01;30.79;43.42
71514;DHT22;59335;46.652;21.272;2022-08-19T07:38:05;30.80;43.38
71514;DHT22;59335;46.652;21.272;2022-08-19T07:41:14;30.85;43.39
71514;DHT22;59335;46.652;21.272;2022-08-19T07:44:19;30.85;43.40
71514;DHT22;59335;46.652;21.272;2022-08-19T07:47:23;30.89;43.37
71514;DHT22;59335;46.652;21.272;2022-08-19T07:50:45;30.87;43.37
71514;DHT22;59335;46.652;21.272;2022-08-19T07:53:49;30.90;43.36
71514;DHT22;59335;46.652;21.272;2022-08-19T07:56:53;30.95;43.39
71514;DHT22;59335;46.652;21.272;2022-08-19T07:59:55;30.92;43.36
71514;DHT22;59335;46.652;21.272;2022-08-19T08:02:58;30.96;43.35
71514;DHT22;59335;46.652;21.272;2022-08-19T08:06:01;30.96;43.38
71514;DHT22;59335;46.652;21.272;2022-08-19T08:09:32;31.02;43.35
71514;DHT22;59335;46.652;21.272;2022-08-19T08:12:39;30.99;43.37
71514;DHT22;59335;46.652;21.272;2022-08-19T08:16:03;31.00;43.33
71514;DHT22;59335;46.652;21.272;2022-08-19T08:19:12;31.00;43.33
71514;DHT22;59335;46.652;21.272;2022-08-19T08:22:27;31.03;43.30
71514;DHT22;59335;46.652;21.272;2022-08-19T08:25:48;31.06;43.32
71514;DHT22;59335;46.652;21.272;2022-08-19T08:28:52;31.04;43.25
71514;DHT22;59335;46.652;21.272;2022-08-19T08:31:55;31.06;43.28
71514;DHT22;59335;46.652;21.272;2022-08-19T08:35:01;31.06;43.25
71514;DHT22;59335;46.652;21.272;2022-08-19T08:38:04;31.09;43.20
71514;DHT22;59335;46.652;21.272;2022-08-19T12:21:49;31.00;42.44
71514;DHT22;59335;46.652;21.272;2022-08-19T12:24:52;30.99;42.48
71514;DHT22;59335;46.652;21.272;2022-08-19T12:28:03;31.02;42.48
71514;DHT22;59335;46.652;21.272;2022-08-19T12:31:06;30.99;42.51
71514;DHT22;59335;46.652;21.272;2022-08-19T12:34:09;31.02;42.44
71514;DHT22;59335;46.652;21.272;2022-08-19T12:37:12;30.99;42.48
71514;DHT22;59335;46.652;21.272;2022-08-19T12:40:16;30.99;42.54
71514;DHT22;59335;46.652;21.272;2022-08-19T12:43:20;30.99;42.50
71514;DHT22;59335;46.652;21.272;2022-08-19T12:46:22;30.99;42.44
71514;DHT22;59335;46.652;21.272;2022-08-19T12:49:28;31.00;42.45
71514;DHT22;59335;46.652;21.272;2022-08-19T12:52:51;31.02;42.52
71514;DHT22;59335;46.652;21.272;2022-08-19T12:55:58;31.02;42.47
71514;DHT22;59335;46.652;21.272;2022-08-19T12:59:03;31.02;42.53
71514;DHT22;59335;46.652;21.272;2022-08-19T13:02:07;30.97;42.47
71514;DHT22;59335;46.652;21.272;2022-08-19T13:05:13;31.00;42.51
71514;DHT22;59335;46.652;21.272;2022-08-19T13:08:16;31.02;42.52
71514;DHT22;59335;46.652;21.272;2022-08-19T13:11:20;31.00;42.54
71514;DHT22;59335;46.652;21.272;2022-08-19T13:14:25;31.02;42.54
71514;DHT22;59335;46.652;21.272;2022-08-19T13:17:28;31.02;42.58
71514;DHT22;59335;46.652;21.272;2022-08-19T13:20:31;31.02;42.57
71514;DHT22;59335;46.652;21.272;2022-08-19T13:23:35;31.00;42.58
71514;DHT22;59335;46.652;21.272;2022-08-19T13:26:37;31.03;42.60
71514;DHT22;59335;46.652;21.272;2022-08-19T13:29:41;31.03;42.60
71514;DHT22;59335;46.652;21.272;2022-08-19T13:33:03;31.03;42.60
71514;DHT22;59335;46.652;21.272;2022-08-19T13:36:17;31.00;42.64
71514;DHT22;59335;46.652;21.272;2022-08-19T13:39:20;31.00;42.60
71514;DHT22;59335;46.652;21.272;2022-08-19T13:42:25;31.02;42.63
71514;DHT22;59335;46.652;21.272;2022-08-19T13:45:29;31.02;42.63
71514;DHT22;59335;46.652;21.272;2022-08-19T13:48:36;31.00;42.58
71514;DHT22;59335;46.652;21.272;2022-08-19T13:51:39;31.03;42.54
71514;DHT22;59335;46.652;21.272;2022-08-19T13:54:43;31.00;42.54
71514;DHT22;59335;46.652;21.272;2022-08-19T13:57:46;31.02;42.61
71514;DHT22;59335;46.652;21.272;2022-08-19T14:00:52;31.00;42.54
71514;DHT22;59335;46.652;21.272;2022-08-19T14:03:54;31.03;42.50
71514;DHT22;59335;46.652;21.272;2022-08-19T14:06:57;31.02;42.55
71514;DHT22;59335;46.652;21.272;2022-08-19T14:10:00;31.02;42.57
71514;DHT22;59335;46.652;21.272;2022-08-19T14:13:03;31.00;42.50
71514;DHT22;59335;46.652;21.272;2022-08-19T14:16:11;31.02;42.63
71514;DHT22;59335;46.652;21.272;2022-08-19T14:19:14;31.03;42.61
71514;DHT22;59335;46.652;21.272;2022-08-19T14:22:17;31.02;42.66
71514;DHT22;59335;46.652;21.272;2022-08-19T14:25:26;31.02;42.63
71514;DHT22;59335;46.652;21.272;2022-08-19T14:28:29;31.03;42.63
71514;DHT22;59335;46.652;21.272;2022-08-19T14:31:32;31.02;42.61
71514;DHT22;59335;46.652;21.272;2022-08-19T14:34:35;31.02;42.63
71514;DHT22;59335;46.652;21.272;2022-08-19T14:37:41;31.02;42.67
71514;DHT22;59335;46.652;21.272;2022-08-19T14:40:47;30.99;42.61
71514;DHT22;59335;46.652;21.272;2022-08-19T14:43:56;31.00;42.64
71514;DHT22;59335;46.652;21.272;2022-08-19T14:46:59;30.99;42.63
71514;DHT22;59335;46.652;21.272;2022-08-19T14:50:06;31.02;42.67
71514;DHT22;59335;46.652;21.272;2022-08-19T14:53:11;30.99;42.68
71514;DHT22;59335;46.652;21.272;2022-08-19T14:56:17;31.02;42.69
71514;DHT22;59335;46.652;21.272;2022-08-19T14:59:20;30.97;42.74
71514;DHT22;59335;46.652;21.272;2022-08-19T15:02:23;31.00;42.64
71514;DHT22;59335;46.652;21.272;2022-08-19T15:05:36;30.99;42.68
71514;DHT22;59335;46.652;21.272;2022-08-19T15:08:40;31.00;42.65
71514;DHT22;59335;46.652;21.272;2022-08-19T15:11:43;31.00;42.64
71514;DHT22;59335;46.652;21.272;2022-08-19T15:14:46;31.02;42.59
71514;DHT22;59335;46.652;21.272;2022-08-19T15:17:57;31.02;42.61
71514;DHT22;59335;46.652;21.272;2022-08-19T15:21:04;31.00;42.70
71514;DHT22;59335;46.652;21.272;2022-08-19T15:24:07;31.00;42.70
71514;DHT22;59335;46.652;21.272;2022-08-19T15:27:12;30.97;42.71
71514;DHT22;59335;46.652;21.272;2022-08-19T15:30:20;31.00;42.68
71514;DHT22;59335;46.652;21.272;2022-08-19T15:33:24;31.00;42.69
71514;DHT22;59335;46.652;21.272;2022-08-19T15:36:28;30.97;42.69
71514;DHT22;59335;46.652;21.272;2022-08-19T15:39:31;30.99;42.67
71514;DHT22;59335;46.652;21.272;2022-08-19T15:42:35;31.00;42.71
71514;DHT22;59335;46.652;21.272;2022-08-19T15:45:39;30.97;42.67
71514;DHT22;59335;46.652;21.272;2022-08-19T15:48:51;30.97;42.68
71514;DHT22;59335;46.652;21.272;2022-08-19T15:52:00;31.02;42.68
71514;DHT22;59335;46.652;21.272;2022-08-19T15:55:04;30.97;42.69
71514;DHT22;59335;46.652;21.272;2022-08-19T15:58:11;30.99;42.68
71514;DHT22;59335;46.652;21.272;2022-08-19T16:01:33;30.97;42.78
71514;DHT22;59335;46.652;21.272;2022-08-19T16:04:42;30.96;42.78
71514;DHT22;59335;46.652;21.272;2022-08-19T16:08:04;30.97;42.71
71514;DHT22;59335;46.652;21.272;2022-08-19T16:11:06;30.96;42.70
71514;DHT22;59335;46.652;21.272;2022-08-19T16:14:09;30.96;42.65
71514;DHT22;59335;46.652;21.272;2022-08-19T16:17:12;30.96;42.71
71514;DHT22;59335;46.652;21.272;2022-08-19T16:20:14;30.96;42.71
71514;DHT22;59335;46.652;21.272;2022-08-19T16:23:26;30.96;42.73
71514;DHT22;59335;46.652;21.272;2022-08-19T16:26:29;30.95;42.76
71514;DHT22;59335;46.652;21.272;2022-08-19T16:29:33;30.96;42.81
71514;DHT22;59335;46.652;21.272;2022-08-19T16:32:43;30.97;42.75
71514;DHT22;59335;46.652;21.272;2022-08-19T16:35:46;30.96;42.73
71514;DHT22;59335;46.652;21.272;2022-08-19T16:39:00;30.95;42.75
71514;DHT22;59335;46.652;21.272;2022-08-19T16:42:04;30.92;42.72
71514;DHT22;59335;46.652;21.272;2022-08-19T16:45:09;30.95;42.75
71514;DHT22;59335;46.652;21.272;2022-08-19T16:48:11;30.93;42.67
71514;DHT22;59335;46.652;21.272;2022-08-19T16:51:14;30.96;42.75
71514;DHT22;59335;46.652;21.272;2022-08-19T16:54:17;30.95;42.70
71514;DHT22;59335;46.652;21.272;2022-08-19T16:57:20;30.95;42.72
71514;DHT22;59335;46.652;21.272;2022-08-19T17:00:25;30.93;42.80
71514;DHT22;59335;46.652;21.272;2022-08-19T17:03:28;30.92;42.74
71514;DHT22;59335;46.652;21.272;2022-08-19T17:06:39;30.93;42.74
71514;DHT22;59335;46.652;21.272;2022-08-19T17:09:43;30.92;42.66
71514;DHT22;59335;46.652;21.272;2022-08-19T17:12:47;30.93;42.70
71514;DHT22;59335;46.652;21.272;2022-08-19T17:15:50;30.93;42.63
71514;DHT22;59335;46.652;21.272;2022-08-19T17:18:54;30.92;42.67
71514;DHT22;59335;46.652;21.272;2022-08-19T17:21:57;30.93;42.69
71514;DHT22;59335;46.652;21.272;2022-08-19T17:25:00;30.92;42.66
71514;DHT22;59335;46.652;21.272;2022-08-19T17:28:08;30.92;42.70
71514;DHT22;59335;46.652;21.272;2022-08-19T17:31:14;30.92;42.67
71514;DHT22;59335;46.652;21.272;2022-08-19T17:34:17;30.90;42.68
71514;DHT22;59335;46.652;21.272;2022-08-19T17:37:19;30.89;42.66
71514;DHT22;59335;46.652;21.272;2022-08-19T17:40:23;30.90;42.61
71514;DHT22;59335;46.652;21.272;2022-08-19T17:43:32;30.92;42.70
71514;DHT22;59335;46.652;21.272;2022-08-19T17:46:41;30.87;42.66
71514;DHT22;59335;46.652;21.272;2022-08-19T17:49:45;30.90;42.67
71514;DHT22;59335;46.652;21.272;2022-08-19T17:52:48;30.90;42.64
71514;DHT22;59335;46.652;21.272;2022-08-19T17:55:53;30.90;42.68
71514;DHT22;59335;46.652;21.272;2022-08-19T17:58:56;30.87;42.67
71514;DHT22;59335;46.652;21.272;2022-08-19T18:02:04;30.89;42.64
71514;DHT22;59335;46.652;21.272;2022-08-19T18:05:07;30.92;42.67
71514;DHT22;59335;46.652;21.272;2022-08-19T18:08:10;30.90;42.63
71514;DHT22;59335;46.652;21.272;2022-08-19T18:11:14;30.89;42.67
71514;DHT22;59335;46.652;21.272;2022-08-19T18:14:17;30.89;42.63
71514;DHT22;59335;46.652;21.272;2022-08-19T18:17:20;30.87;42.64
71514;DHT22;59335;46.652;21.272;2022-08-19T18:20:24;30.89;42.64
71514;DHT22;59335;46.652;21.272;2022-08-19T18:23:27;30.87;42.64
71514;DHT22;59335;46.652;21.272;2022-08-19T18:26:47;30.85;42.68
71514;DHT22;59335;46.652;21.272;2022-08-19T18:29:50;30.87;42.60
71514;DHT22;59335;46.652;21.272;2022-08-19T18:32:53;30.87;42.58
71514;DHT22;59335;46.652;21.272;2022-08-19T18:35:56;30.86;42.55
71514;DHT22;59335;46.652;21.272;2022-08-19T18:38:58;30.86;42.51
71514;DHT22;59335;46.652;21.272;2022-08-19T18:42:22;30.85;42.57
71514;DHT22;59335;46.652;21.272;2022-08-19T18:45:43;30.86;42.51
71514;DHT22;59335;46.652;21.272;2022-08-19T18:49:10;30.85;42.51
71514;DHT22;59335;46.652;21.272;2022-08-19T18:52:12;30.85;42.63
71514;DHT22;59335;46.652;21.272;2022-08-19T18:55:15;30.85;42.65
71514;DHT22;59335;46.652;21.272;2022-08-19T18:58:23;30.86;42.67
71514;DHT22;59335;46.652;21.272;2022-08-19T19:01:33;30.85;42.62
71514;DHT22;59335;46.652;21.272;2022-08-19T19:04:37;30.85;42.66
71514;DHT22;59335;46.652;21.272;2022-08-19T19:07:40;30.83;42.57
71514;DHT22;59335;46.652;21.272;2022-08-19T19:10:43;30.83;42.61
71514;DHT22;59335;46.652;21.272;2022-08-19T19:13:47;30.82;42.57
71514;DHT22;59335;46.652;21.272;2022-08-19T19:16:51;30.80;42.61
71514;DHT22;59335;46.652;21.272;2022-08-19T19:19:53;30.86;42.59
71514;DHT22;59335;46.652;21.272;2022-08-19T19:22:56;30.83;42.55
71514;DHT22;59335;46.652;21.272;2022-08-19T19:26:00;30.83;42.55
71514;DHT22;59335;46.652;21.272;2022-08-19T19:29:03;30.83;42.56
71514;DHT22;59335;46.652;21.272;2022-08-19T19:32:09;30.82;42.53
71514;DHT22;59335;46.652;21.272;2022-08-19T19:35:12;30.83;42.50
71514;DHT22;59335;46.652;21.272;2022-08-19T19:38:15;30.80;42.55
71514;DHT22;59335;46.652;21.272;2022-08-19T19:41:21;30.82;42.52
71514;DHT22;59335;46.652;21.272;2022-08-19T19:44:27;30.80;42.50
71514;DHT22;59335;46.652;21.272;2022-08-19T19:47:34;30.82;42.51
71514;DHT22;59335;46.652;21.272;2022-08-19T19:50:37;30.80;42.52
71514;DHT22;59335;46.652;21.272;2022-08-19T19:53:40;30.79;42.56
71514;DHT22;59335;46.652;21.272;2022-08-19T19:56:42;30.80;42.53
71514;DHT22;59335;46.652;21.272;2022-08-19T19:59:46;30.80;42.49
71514;DHT22;59335;46.652;21.272;2022-08-19T20:02:53;30.82;42.46
71514;DHT22;59335;46.652;21.272;2022-08-19T20:05:57;30.80;42.41
71514;DHT22;59335;46.652;21.272;2022-08-19T20:09:00;30.79;42.42
71514;DHT22;59335;46.652;21.272;2022-08-19T20:12:09;30.79;42.45
71514;DHT22;59335;46.652;21.272;2022-08-19T20:15:12;30.79;42.43
71514;DHT22;59335;46.652;21.272;2022-08-19T20:18:16;30.79;42.40
71514;DHT22;59335;46.652;21.272;2022-08-19T20:21:19;30.79;42.33
71514;DHT22;59335;46.652;21.272;2022-08-19T20:24:24;30.80;42.34
71514;DHT22;59335;46.652;21.272;2022-08-19T20:27:29;30.80;42.36
71514;DHT22;59335;46.652;21.272;2022-08-19T20:30:42;30.80;42.33
71514;DHT22;59335;46.652;21.272;2022-08-19T20:33:49;30.78;42.41
71514;DHT22;59335;46.652;21.272;2022-08-19T20:36:52;30.78;42.39
71514;DHT22;59335;46.652;21.272;2022-08-19T20:39:55;30.78;42.39
71514;DHT22;59335;46.652;21.272;2022-08-19T20:42:57;30.80;42.42
71514;DHT22;59335;46.652;21.272;2022-08-19T20:46:00;30.79;42.43
71514;DHT22;59335;46.652;21.272;2022-08-19T20:49:06;30.80;42.43
71514;DHT22;59335;46.652;21.272;2022-08-19T20:52:09;30.78;42.41
71514;DHT22;59335;46.652;21.272;2022-08-19T20:55:12;30.78;42.39
71514;DHT22;59335;46.652;21.272;2022-08-19T20:58:16;30.78;42.40
71514;DHT22;59335;46.652;21.272;2022-08-19T21:01:19;30.78;42.40
71514;DHT22;59335;46.652;21.272;2022-08-19T21:04:22;30.79;42.35
71514;DHT22;59335;46.652;21.272;2022-08-19T21:07:25;30.79;42.41
71514;DHT22;59335;46.652;21.272;2022-08-19T21:10:40;30.79;42.46
71514;DHT22;59335;46.652;21.272;2022-08-19T21:13:43;30.78;42.40
71514;DHT22;59335;46.652;21.272;2022-08-19T21:16:46;30.78;42.38
71514;DHT22;59335;46.652;21.272;2022-08-19T21:19:48;30.75;42.40
71514;DHT22;59335;46.652;21.272;2022-08-19T21:22:51;30.78;42.37
71514;DHT22;59335;46.652;21.272;2022-08-19T21:25:56;30.78;42.31
71514;DHT22;59335;46.652;21.272;2022-08-19T21:28:59;30.75;42.30
71514;DHT22;59335;46.652;21.272;2022-08-19T21:32:03;30.75;42.21
71514;DHT22;59335;46.652;21.272;2022-08-19T21:35:05;30.75;42.23
71514;DHT22;59335;46.652;21.272;2022-08-19T21:38:08;30.78;42.19
71514;DHT22;59335;46.652;21.272;2022-08-19T21:41:11;30.74;42.25
71514;DHT22;59335;46.652;21.272;2022-08-19T21:44:13;30.76;42.25
71514;DHT22;59335;46.652;21.272;2022-08-19T21:47:16;30.75;42.27
71514;DHT22;59335;46.652;21.272;2022-08-19T21:50:19;30.75;42.19
71514;DHT22;59335;46.652;21.272;2022-08-19T21:53:21;30.75;42.18
71514;DHT22;59335;46.652;21.272;2022-08-19T21:56:24;30.74;42.14
71514;DHT22;59335;46.652;21.272;2022-08-19T21:59:27;30.75;42.17
71514;DHT22;59335;46.652;21.272;2022-08-19T22:02:29;30.75;42.14
71514;DHT22;59335;46.652;21.272;2022-08-19T22:05:32;30.74;42.18
71514;DHT22;59335;46.652;21.272;2022-08-19T22:08:35;30.76;42.18
71514;DHT22;59335;46.652;21.272;2022-08-19T22:11:38;30.75;42.15
71514;DHT22;59335;46.652;21.272;2022-08-19T22:14:41;30.75;42.09
71514;DHT22;59335;46.652;21.272;2022-08-19T22:17:43;30.74;42.15
71514;DHT22;59335;46.652;21.272;2022-08-19T22:20:46;30.75;42.14
71514;DHT22;59335;46.652;21.272;2022-08-19T22:23:50;30.74;42.12
71514;DHT22;59335;46.652;21.272;2022-08-19T22:26:52;30.74;42.15
71514;DHT22;59335;46.652;21.272;2022-08-19T22:29:55;30.74;42.15
71514;DHT22;59335;46.652;21.272;2022-08-19T22:32:59;30.72;42.12
71514;DHT22;59335;46.652;21.272;2022-08-19T22:36:04;30.74;42.12
71514;DHT22;59335;46.652;21.272;2022-08-19T22:39:08;30.75;42.12
71514;DHT22;59335;46.652;21.272;2022-08-19T22:42:11;30.75;42.08
71514;DHT22;59335;46.652;21.272;2022-08-19T22:45:15;30.71;42.02
71514;DHT22;59335;46.652;21.272;2022-08-19T22:48:21;30.74;41.98
71514;DHT22;59335;46.652;21.272;2022-08-19T22:51:24;30.75;42.01
71514;DHT22;59335;46.652;21.272;2022-08-19T22:55:05;30.72;41.93
71514;DHT22;59335;46.652;21.272;2022-08-19T22:58:08;30.71;41.92